createdAt,value
2019-03-24T00:00:11.270Z,5.20
2019-03-24T00:02:39.612Z,6.70
2019-03-24T00:05:08.015Z,5.17
2019-03-24T00:07:36.411Z,5.53
2019-03-24T00:10:06.725Z,6.07
2019-03-24T00:12:35.133Z,4.83
2019-03-24T00:15:05.523Z,5.50
2019-03-24T00:17:33.899Z,6.33
2019-03-24T00:20:02.302Z,5.60
2019-03-24T00:22:30.751Z,5.90
2019-03-24T00:24:59.154Z,6.10
2019-03-24T00:27:27.531Z,5.07
2019-03-24T00:29:56.496Z,5.73
2019-03-24T00:32:24.907Z,5.13
2019-03-24T00:34:53.316Z,5.27
2019-03-24T00:37:21.715Z,4.90
2019-03-24T00:39:50.110Z,5.37
2019-03-24T00:42:18.521Z,4.97
2019-03-24T00:44:46.915Z,5.43
2019-03-24T00:47:15.294Z,5.00
2019-03-24T00:49:44.721Z,4.97
2019-03-24T00:52:13.059Z,5.07
2019-03-24T00:54:41.436Z,4.87
2019-03-24T00:57:09.887Z,5.87
2019-03-24T00:59:38.259Z,4.93
2019-03-24T01:02:06.661Z,4.90
2019-03-24T01:04:35.051Z,4.90
2019-03-24T01:07:03.910Z,4.73
2019-03-24T01:09:32.314Z,5.27
2019-03-24T01:12:00.701Z,4.90
2019-03-24T01:14:29.109Z,5.50
2019-03-24T01:16:57.512Z,5.23
2019-03-24T01:19:25.941Z,4.73
2019-03-24T01:21:54.346Z,5.33
2019-03-24T01:24:22.715Z,5.17
2019-03-24T01:26:51.203Z,4.27
2019-03-24T01:29:19.592Z,5.30
2019-03-24T01:31:47.962Z,4.60
2019-03-24T01:34:16.363Z,4.73
2019-03-24T01:36:44.741Z,5.30
2019-03-24T01:39:13.125Z,5.33
2019-03-24T01:41:41.524Z,4.80
2019-03-24T01:44:09.928Z,4.07
2019-03-24T01:46:38.316Z,5.03
2019-03-24T01:49:06.781Z,4.77
2019-03-24T01:51:35.158Z,5.40
2019-03-24T01:54:03.570Z,4.17
2019-03-24T01:56:32.040Z,3.90
2019-03-24T01:59:00.429Z,4.20
2019-03-24T02:01:28.807Z,4.93
2019-03-24T02:03:57.206Z,5.17
2019-03-24T02:06:25.615Z,4.30
2019-03-24T02:08:54.033Z,4.60
2019-03-24T02:11:22.601Z,4.00
2019-03-24T02:13:50.973Z,4.57
2019-03-24T02:16:19.361Z,4.73
2019-03-24T02:18:47.769Z,4.43
2019-03-24T02:21:16.140Z,4.27
2019-03-24T02:23:44.535Z,4.73
2019-03-24T02:26:12.933Z,4.23
2019-03-24T02:28:41.310Z,5.10
2019-03-24T02:31:09.691Z,4.50
2019-03-24T02:33:38.101Z,4.70
2019-03-24T02:36:06.517Z,4.43
2019-03-24T02:38:34.896Z,4.93
2019-03-24T02:41:03.289Z,4.37
2019-03-24T02:43:31.653Z,4.07
2019-03-24T02:46:00.071Z,4.60
2019-03-24T02:48:28.432Z,4.03
2019-03-24T02:50:56.808Z,4.90
2019-03-24T02:53:25.203Z,3.87
2019-03-24T02:55:53.587Z,4.57
2019-03-24T02:58:22.010Z,4.57
2019-03-24T03:00:50.380Z,4.57
2019-03-24T03:03:18.776Z,4.00
2019-03-24T03:05:48.175Z,3.90
2019-03-24T03:08:16.544Z,4.60
2019-03-24T03:10:44.942Z,3.60
2019-03-24T03:13:13.312Z,5.17
2019-03-24T03:15:41.735Z,4.70
2019-03-24T03:18:10.129Z,5.13
2019-03-24T03:20:38.515Z,3.97
2019-03-24T03:23:06.939Z,4.80
2019-03-24T03:25:35.351Z,4.50
2019-03-24T03:28:03.744Z,4.43
2019-03-24T03:30:32.130Z,3.97
2019-03-24T03:33:00.566Z,3.67
2019-03-24T03:35:28.924Z,3.57
2019-03-24T03:37:57.351Z,4.63
2019-03-24T03:40:25.745Z,4.30
2019-03-24T03:42:54.137Z,3.93
2019-03-24T03:45:26.994Z,4.33
2019-03-24T03:47:55.686Z,3.90
2019-03-24T03:50:24.100Z,4.30
2019-03-24T03:52:52.464Z,5.03
2019-03-24T03:55:20.831Z,4.53
2019-03-24T03:57:49.232Z,4.23
2019-03-24T04:00:20.871Z,4.30
2019-03-24T04:02:49.272Z,4.40
2019-03-24T04:05:17.662Z,4.70
2019-03-24T04:07:46.123Z,4.30
2019-03-24T04:10:14.496Z,3.80
2019-03-24T04:12:42.904Z,4.50
2019-03-24T04:15:11.350Z,4.13
2019-03-24T04:17:39.695Z,4.07
2019-03-24T04:20:08.121Z,3.83
2019-03-24T04:22:36.519Z,5.07
2019-03-24T04:25:06.432Z,4.57
2019-03-24T04:27:34.829Z,4.27
2019-03-24T04:30:03.382Z,5.23
2019-03-24T04:32:31.763Z,4.33
2019-03-24T04:35:00.256Z,4.83
2019-03-24T04:37:28.850Z,3.90
2019-03-24T04:39:57.232Z,4.73
2019-03-24T04:42:25.632Z,4.90
2019-03-24T04:44:54.001Z,4.43
2019-03-24T04:47:22.412Z,4.27
2019-03-24T04:49:50.822Z,5.13
2019-03-24T04:52:19.252Z,4.50
2019-03-24T04:54:47.679Z,4.67
2019-03-24T04:57:16.059Z,4.20
2019-03-24T04:59:44.487Z,5.03
2019-03-24T05:02:12.854Z,5.13
2019-03-24T05:04:41.291Z,5.63
2019-03-24T05:07:10.004Z,4.87
2019-03-24T05:09:38.779Z,4.30
2019-03-24T05:12:07.170Z,5.10
2019-03-24T05:14:35.570Z,5.07
2019-03-24T05:17:03.970Z,4.80
2019-03-24T05:19:32.371Z,4.20
2019-03-24T05:22:00.777Z,5.20
2019-03-24T05:24:29.162Z,4.90
2019-03-24T05:26:57.577Z,4.57
2019-03-24T05:29:25.957Z,4.63
2019-03-24T05:31:54.350Z,5.80
2019-03-24T05:34:22.760Z,4.50
2019-03-24T05:36:51.131Z,4.63
2019-03-24T05:39:19.537Z,4.90
2019-03-24T05:41:47.916Z,4.97
2019-03-24T05:44:16.313Z,4.53
2019-03-24T05:46:44.678Z,5.10
2019-03-24T05:49:13.070Z,5.23
2019-03-24T05:51:41.470Z,5.07
2019-03-24T05:54:09.843Z,5.07
2019-03-24T05:56:38.252Z,5.20
2019-03-24T05:59:06.633Z,5.50
2019-03-24T06:01:35.048Z,5.33
2019-03-24T06:04:03.419Z,5.67
2019-03-24T06:06:31.817Z,5.40
2019-03-24T06:09:00.185Z,5.50
2019-03-24T06:11:28.549Z,5.57
2019-03-24T06:13:56.938Z,5.70
2019-03-24T06:16:25.310Z,5.53
2019-03-24T06:18:53.694Z,5.60
2019-03-24T06:21:22.063Z,6.57
2019-03-24T06:23:50.465Z,6.23
2019-03-24T06:26:18.849Z,5.13
2019-03-24T06:28:47.251Z,5.63
2019-03-24T06:31:15.632Z,6.20
2019-03-24T06:33:44.048Z,6.30
2019-03-24T06:36:12.428Z,5.47
2019-03-24T06:38:40.800Z,6.20
2019-03-24T06:41:09.186Z,5.83
2019-03-24T06:43:37.631Z,6.23
2019-03-24T06:46:06.027Z,5.90
2019-03-24T06:48:34.402Z,5.17
2019-03-24T06:51:02.799Z,6.73
2019-03-24T06:53:31.197Z,6.07
2019-03-24T06:55:59.690Z,6.03
2019-03-24T06:58:28.071Z,6.57
2019-03-24T07:00:59.379Z,6.43
2019-03-24T07:03:27.832Z,5.83
2019-03-24T07:05:56.205Z,6.50
2019-03-24T07:08:24.583Z,6.70
2019-03-24T07:10:52.989Z,6.90
2019-03-24T07:13:21.362Z,6.20
2019-03-24T07:15:49.750Z,6.40
2019-03-24T07:18:18.121Z,6.03
2019-03-24T07:20:46.518Z,6.13
2019-03-24T07:23:14.906Z,5.43
2019-03-24T07:25:43.306Z,5.70
2019-03-24T07:28:11.814Z,5.50
2019-03-24T07:30:40.182Z,5.73
2019-03-24T07:33:08.577Z,5.43
2019-03-24T07:35:37.000Z,5.40
2019-03-24T07:38:05.367Z,5.73
2019-03-24T07:40:33.767Z,4.93
2019-03-24T07:43:02.132Z,5.17
2019-03-24T07:45:30.521Z,5.17
2019-03-24T07:47:58.943Z,4.87
2019-03-24T07:50:27.319Z,4.47
2019-03-24T07:52:55.726Z,4.60
2019-03-24T07:55:24.114Z,4.33
2019-03-24T07:57:52.514Z,4.50
2019-03-24T08:00:32.239Z,4.00
2019-03-24T08:03:03.317Z,4.17
2019-03-24T08:05:31.703Z,3.90
2019-03-24T08:08:00.097Z,4.63
2019-03-24T08:10:28.467Z,4.43
2019-03-24T08:12:56.908Z,4.83
2019-03-24T08:15:25.357Z,4.57
2019-03-24T08:17:53.764Z,4.10
2019-03-24T08:20:22.168Z,5.23
2019-03-24T08:22:50.545Z,4.27
2019-03-24T08:25:19.219Z,4.17
2019-03-24T08:27:47.671Z,4.80
2019-03-24T08:30:19.300Z,3.97
2019-03-24T08:32:47.816Z,3.50
2019-03-24T08:35:16.183Z,3.40
2019-03-24T08:37:44.659Z,3.57
2019-03-24T08:40:13.063Z,4.43
2019-03-24T08:42:41.464Z,3.90
2019-03-24T08:45:13.131Z,3.97
2019-03-24T08:47:41.494Z,3.63
2019-03-24T08:50:09.885Z,4.07
2019-03-24T08:52:38.262Z,3.80
2019-03-24T08:55:07.954Z,3.70
2019-03-24T08:57:36.344Z,4.10
2019-03-24T09:00:07.434Z,4.13
2019-03-24T09:02:36.007Z,3.53
2019-03-24T09:05:06.234Z,3.47
2019-03-24T09:07:34.647Z,4.00
2019-03-24T09:10:03.288Z,3.63
2019-03-24T09:12:31.712Z,3.87
2019-03-24T09:15:03.070Z,3.60
2019-03-24T09:17:31.845Z,4.00
2019-03-24T09:20:00.397Z,3.87
2019-03-24T09:22:28.779Z,3.43
2019-03-24T09:24:57.141Z,3.93
2019-03-24T09:27:25.546Z,4.37
2019-03-24T09:29:53.996Z,3.53
2019-03-24T09:32:22.358Z,4.17
2019-03-24T09:34:50.759Z,3.83
2019-03-24T09:37:19.200Z,3.80
2019-03-24T09:39:47.670Z,4.03
2019-03-24T09:42:16.057Z,3.33
2019-03-24T09:44:44.559Z,4.17
2019-03-24T09:47:12.940Z,4.93
2019-03-24T09:49:41.338Z,4.83
2019-03-24T09:52:09.714Z,4.67
2019-03-24T09:54:38.092Z,4.40
2019-03-24T09:57:06.505Z,3.73
2019-03-24T09:59:34.874Z,4.00
2019-03-24T10:02:03.273Z,4.57
2019-03-24T10:04:31.663Z,4.07
2019-03-24T10:07:00.034Z,4.17
2019-03-24T10:09:28.431Z,3.37
2019-03-24T10:11:56.803Z,4.20
2019-03-24T10:14:25.195Z,4.47
2019-03-24T10:16:55.620Z,3.87
2019-03-24T10:19:23.623Z,3.40
2019-03-24T10:21:52.018Z,4.00
2019-03-24T10:24:20.393Z,4.10
2019-03-24T10:26:48.818Z,4.00
2019-03-24T10:29:17.209Z,3.87
2019-03-24T10:31:45.606Z,4.17
2019-03-24T10:34:13.997Z,4.10
2019-03-24T10:36:42.396Z,3.63
2019-03-24T10:39:10.780Z,3.43
2019-03-24T10:41:39.185Z,3.30
2019-03-24T10:44:07.567Z,3.70
2019-03-24T10:46:35.970Z,2.40
2019-03-24T10:49:04.378Z,3.17
2019-03-24T10:51:32.860Z,3.57
2019-03-24T10:54:01.244Z,3.87
2019-03-24T10:56:29.643Z,3.00
2019-03-24T10:58:58.050Z,3.50
2019-03-24T11:01:26.418Z,3.63
2019-03-24T11:03:54.883Z,3.63
2019-03-24T11:06:23.259Z,2.97
2019-03-24T11:08:51.670Z,2.73
2019-03-24T11:11:20.035Z,3.47
2019-03-24T11:13:48.432Z,3.80
2019-03-24T11:16:16.835Z,3.43
2019-03-24T11:18:46.852Z,2.90
2019-03-24T11:21:15.258Z,3.67
2019-03-24T11:23:43.655Z,2.87
2019-03-24T11:26:12.038Z,2.83
2019-03-24T11:28:40.415Z,3.17
2019-03-24T11:31:08.790Z,3.17
2019-03-24T11:33:37.258Z,2.87
2019-03-24T11:36:05.648Z,3.40
2019-03-24T11:38:34.044Z,2.73
2019-03-24T11:41:02.423Z,2.90
2019-03-24T11:43:30.833Z,3.47
2019-03-24T11:45:59.230Z,3.10
2019-03-24T11:48:27.618Z,2.63
2019-03-24T11:50:56.019Z,3.17
2019-03-24T11:53:24.412Z,3.07
2019-03-24T11:55:52.810Z,2.83
2019-03-24T11:58:21.195Z,3.10
2019-03-24T12:00:49.562Z,3.20
2019-03-24T12:03:17.977Z,3.13
2019-03-24T12:05:46.346Z,2.60
2019-03-24T12:08:14.865Z,2.40
2019-03-24T12:10:43.238Z,2.10
2019-03-24T12:13:11.621Z,2.37
2019-03-24T12:15:40.038Z,2.67
2019-03-24T12:18:08.431Z,2.80
2019-03-24T12:20:36.859Z,3.10
2019-03-24T12:23:05.238Z,2.43
2019-03-24T12:25:33.644Z,2.20
2019-03-24T12:28:02.006Z,2.10
2019-03-24T12:30:30.390Z,2.83
2019-03-24T12:32:58.787Z,2.70
2019-03-24T12:35:27.221Z,2.37
2019-03-24T12:37:55.616Z,2.30
2019-03-24T12:40:24.005Z,1.70
2019-03-24T12:42:52.427Z,2.37
2019-03-24T12:45:20.786Z,1.57
2019-03-24T12:47:49.187Z,2.00
2019-03-24T12:50:17.554Z,1.83
2019-03-24T12:52:45.931Z,2.00
2019-03-24T12:55:14.322Z,2.13
2019-03-24T12:57:44.247Z,2.40
2019-03-24T13:00:12.938Z,2.00
2019-03-24T13:02:41.283Z,1.97
2019-03-24T13:05:09.725Z,2.30
2019-03-24T13:07:38.091Z,2.20
2019-03-24T13:10:07.559Z,2.80
2019-03-24T13:12:35.967Z,2.57
2019-03-24T13:15:06.597Z,2.10
2019-03-24T13:17:34.970Z,1.73
2019-03-24T13:20:05.682Z,2.67
2019-03-24T13:22:34.124Z,2.30
2019-03-24T13:25:02.580Z,2.37
2019-03-24T13:27:31.119Z,2.43
2019-03-24T13:29:59.524Z,2.07
2019-03-24T13:32:27.900Z,2.30
2019-03-24T13:34:56.313Z,2.30
2019-03-24T13:37:24.695Z,2.57
2019-03-24T13:39:53.095Z,2.30
2019-03-24T13:42:21.559Z,2.00
2019-03-24T13:44:49.983Z,2.67
2019-03-24T13:47:18.371Z,2.63
2019-03-24T13:49:46.773Z,2.17
2019-03-24T13:52:15.174Z,2.37
2019-03-24T13:54:43.577Z,2.10
2019-03-24T13:57:12.035Z,2.60
2019-03-24T13:59:40.438Z,2.80
2019-03-24T14:02:09.031Z,2.13
2019-03-24T14:04:37.464Z,2.00
2019-03-24T14:07:05.879Z,3.30
2019-03-24T14:09:34.322Z,3.53
2019-03-24T14:12:02.727Z,2.80
2019-03-24T14:14:31.210Z,2.13
2019-03-24T14:16:59.585Z,3.30
2019-03-24T14:19:27.970Z,2.47
2019-03-24T14:21:56.416Z,3.03
2019-03-24T14:24:24.829Z,3.07
2019-03-24T14:26:53.205Z,2.63
2019-03-24T14:29:21.578Z,2.83
2019-03-24T14:31:49.970Z,2.30
2019-03-24T14:34:18.357Z,2.57
2019-03-24T14:36:46.764Z,2.20
2019-03-24T14:39:15.149Z,2.70
2019-03-24T14:41:43.563Z,2.23
2019-03-24T14:44:11.967Z,2.30
2019-03-24T14:46:40.374Z,2.20
2019-03-24T14:49:08.750Z,2.30
2019-03-24T14:51:37.178Z,2.17
2019-03-24T14:54:05.570Z,2.37
2019-03-24T14:56:34.138Z,2.27
2019-03-24T14:59:02.615Z,2.60
2019-03-24T15:01:31.033Z,2.57
2019-03-24T15:03:59.404Z,2.10
2019-03-24T15:06:27.808Z,1.80
2019-03-24T15:08:56.195Z,2.47
2019-03-24T15:11:24.600Z,1.80
2019-03-24T15:13:53.007Z,2.13
2019-03-24T15:16:21.414Z,2.00
2019-03-24T15:18:49.787Z,1.93
2019-03-24T15:21:18.293Z,1.97
2019-03-24T15:23:46.658Z,2.20
2019-03-24T15:26:15.079Z,1.53
2019-03-24T15:28:43.465Z,2.20
2019-03-24T15:31:11.862Z,2.30
2019-03-24T15:33:40.269Z,2.10
2019-03-24T15:36:08.676Z,2.27
2019-03-24T15:38:37.079Z,2.60
2019-03-24T15:41:05.461Z,2.37
2019-03-24T15:43:33.863Z,2.00
2019-03-24T15:46:02.476Z,2.07
2019-03-24T15:48:31.051Z,2.50
2019-03-24T15:50:59.450Z,2.97
2019-03-24T15:53:27.832Z,1.93
2019-03-24T15:55:56.243Z,2.87
2019-03-24T15:58:24.627Z,2.27
2019-03-24T16:00:53.071Z,2.43
2019-03-24T16:03:21.450Z,2.17
2019-03-24T16:05:49.849Z,2.33
2019-03-24T16:08:18.250Z,2.33
2019-03-24T16:10:46.622Z,2.53
2019-03-24T16:13:15.092Z,2.10
2019-03-24T16:15:43.450Z,1.80
2019-03-24T16:18:11.862Z,2.37
2019-03-24T16:20:40.464Z,2.03
2019-03-24T16:23:08.857Z,2.30
2019-03-24T16:25:37.281Z,2.13
2019-03-24T16:28:05.663Z,1.83
2019-03-24T16:30:34.086Z,2.13
2019-03-24T16:33:02.459Z,2.23
2019-03-24T16:35:30.965Z,2.17
2019-03-24T16:37:59.367Z,2.20
2019-03-24T16:40:27.743Z,2.50
2019-03-24T16:42:56.304Z,2.43
2019-03-24T16:45:24.697Z,1.90
2019-03-24T16:47:53.102Z,2.00
2019-03-24T16:50:21.511Z,1.83
2019-03-24T16:52:49.923Z,2.37
2019-03-24T16:55:18.345Z,2.20
2019-03-24T16:57:46.729Z,2.70
2019-03-24T17:00:15.141Z,2.43
2019-03-24T17:02:43.559Z,2.00
2019-03-24T17:05:12.033Z,2.53
2019-03-24T17:07:40.394Z,2.33
2019-03-24T17:10:08.808Z,2.10
2019-03-24T17:12:37.209Z,1.90
2019-03-24T17:15:07.031Z,1.70
2019-03-24T17:17:35.439Z,1.83
2019-03-24T17:20:06.660Z,2.20
2019-03-24T17:22:35.067Z,2.27
2019-03-24T17:25:03.517Z,1.77
2019-03-24T17:27:58.208Z,2.87
2019-03-24T17:30:26.537Z,2.33
2019-03-24T17:32:54.927Z,2.20
2019-03-24T17:35:23.325Z,2.07
2019-03-24T17:37:51.686Z,2.10
2019-03-24T17:40:20.081Z,1.80
2019-03-24T17:42:48.586Z,1.70
2019-03-24T17:45:16.998Z,1.73
2019-03-24T17:47:45.367Z,1.70
2019-03-24T17:50:13.800Z,1.80
2019-03-24T17:52:42.187Z,2.23
2019-03-24T17:55:10.641Z,1.97
2019-03-24T17:57:39.038Z,2.20
2019-03-24T18:00:10.689Z,1.80
2019-03-24T18:02:39.106Z,1.90
2019-03-24T18:05:08.535Z,1.93
2019-03-24T18:07:36.997Z,1.77
2019-03-24T18:10:06.135Z,2.00
2019-03-24T18:12:34.548Z,2.00
2019-03-24T18:15:03.066Z,1.60
2019-03-24T18:17:31.471Z,2.23
2019-03-24T18:19:59.892Z,1.97
2019-03-24T18:22:28.270Z,2.33
2019-03-24T18:24:56.646Z,1.77
2019-03-24T18:27:25.049Z,2.67
2019-03-24T18:29:53.422Z,2.20
2019-03-24T18:32:23.093Z,2.10
2019-03-24T18:34:51.695Z,2.50
2019-03-24T18:37:20.096Z,2.17
2019-03-24T18:39:48.475Z,2.23
2019-03-24T18:42:16.892Z,2.10
2019-03-24T18:44:45.286Z,1.83
2019-03-24T18:47:13.674Z,3.03
2019-03-24T18:49:42.073Z,2.50
2019-03-24T18:52:10.444Z,2.83
2019-03-24T18:54:38.824Z,3.20
2019-03-24T18:57:07.236Z,2.80
2019-03-24T18:59:35.602Z,2.50
2019-03-24T19:02:04.004Z,2.57
2019-03-24T19:04:32.367Z,2.47
2019-03-24T19:07:00.739Z,2.60
2019-03-24T19:09:29.143Z,2.60
2019-03-24T19:11:57.559Z,2.97
2019-03-24T19:14:26.011Z,2.63
2019-03-24T19:16:54.445Z,2.40
2019-03-24T19:19:22.837Z,2.10
2019-03-24T19:21:51.206Z,2.30
2019-03-24T19:24:19.617Z,2.70
2019-03-24T19:26:48.000Z,2.13
2019-03-24T19:29:16.364Z,1.70
2019-03-24T19:31:44.763Z,2.57
2019-03-24T19:34:13.149Z,2.30
2019-03-24T19:36:41.547Z,1.80
2019-03-24T19:39:09.921Z,2.13
2019-03-24T19:41:38.314Z,2.50
2019-03-24T19:44:06.729Z,1.90
2019-03-24T19:46:35.103Z,1.87
2019-03-24T19:49:03.502Z,2.40
2019-03-24T19:51:31.908Z,2.20
2019-03-24T19:54:00.288Z,2.90
2019-03-24T19:56:28.681Z,2.47
2019-03-24T19:58:57.055Z,2.17
2019-03-24T20:01:25.438Z,2.53
2019-03-24T20:03:53.842Z,3.93
2019-03-24T20:06:22.234Z,3.93
2019-03-24T20:08:51.004Z,3.43
2019-03-24T20:11:19.495Z,4.03
2019-03-24T20:13:47.900Z,2.37
2019-03-24T20:16:16.269Z,2.57
2019-03-24T20:18:44.662Z,2.67
2019-03-24T20:21:13.054Z,2.90
2019-03-24T20:23:41.433Z,2.77
2019-03-24T20:26:09.823Z,3.60
2019-03-24T20:28:38.190Z,3.70
2019-03-24T20:31:06.575Z,2.80
2019-03-24T20:33:34.963Z,2.90
2019-03-24T20:36:03.334Z,3.40
2019-03-24T20:38:31.730Z,3.80
2019-03-24T20:41:00.109Z,4.30
2019-03-24T20:43:47.954Z,4.97
2019-03-24T20:46:16.332Z,4.43
2019-03-24T20:48:44.738Z,3.50
2019-03-24T20:51:13.101Z,2.87
2019-03-24T20:53:41.518Z,2.93
2019-03-24T20:56:09.883Z,3.27
2019-03-24T20:58:38.358Z,3.20
2019-03-24T21:01:06.735Z,2.67
2019-03-24T21:03:35.098Z,2.50
2019-03-24T21:06:03.563Z,2.90
2019-03-24T21:08:31.949Z,2.53
2019-03-24T21:11:00.332Z,2.23
2019-03-24T21:13:28.698Z,2.73
2019-03-24T21:15:57.070Z,2.47
2019-03-24T21:18:25.473Z,2.43
2019-03-24T21:20:53.838Z,2.27
2019-03-24T21:23:29.476Z,2.53
2019-03-24T21:25:52.245Z,2.60
2019-03-24T21:28:20.646Z,2.03
2019-03-24T21:30:49.041Z,2.93
2019-03-24T21:33:17.446Z,2.23
2019-03-24T21:35:45.839Z,2.43
2019-03-24T21:38:14.208Z,2.27
2019-03-24T21:40:42.670Z,2.23
2019-03-24T21:43:11.039Z,2.30
2019-03-24T21:45:39.389Z,2.20
2019-03-24T21:48:07.721Z,1.70
2019-03-24T21:50:36.107Z,2.10
2019-03-24T21:53:04.738Z,2.10
2019-03-24T21:55:33.139Z,2.00
2019-03-24T21:58:01.503Z,2.10
2019-03-24T22:00:32.172Z,2.53
2019-03-24T22:03:00.566Z,1.90
2019-03-24T22:05:28.937Z,2.93
2019-03-24T22:07:57.357Z,2.40
2019-03-24T22:10:25.723Z,2.20
2019-03-24T22:12:54.126Z,2.47
2019-03-24T22:15:22.497Z,2.73
2019-03-24T22:17:50.870Z,2.60
2019-03-24T22:20:19.280Z,2.80
2019-03-24T22:22:47.656Z,2.67
2019-03-24T22:25:16.046Z,2.67
2019-03-24T22:27:44.423Z,2.77
2019-03-24T22:30:12.852Z,2.70
2019-03-24T22:32:41.199Z,2.83
2019-03-24T22:35:09.598Z,3.23
2019-03-24T22:37:37.968Z,3.50
2019-03-24T22:40:07.508Z,3.23
2019-03-24T22:42:35.886Z,4.17
2019-03-24T22:45:05.231Z,3.70
2019-03-24T22:47:33.582Z,4.17
2019-03-24T22:50:01.984Z,3.73
2019-03-24T22:52:30.377Z,4.83
2019-03-24T22:54:58.756Z,3.80
2019-03-24T22:57:27.161Z,4.33
2019-03-24T22:59:55.542Z,4.17
2019-03-24T23:02:23.919Z,3.70
2019-03-24T23:04:52.336Z,4.03
2019-03-24T23:07:20.719Z,3.80
2019-03-24T23:09:49.105Z,3.33
2019-03-24T23:12:17.481Z,3.23
2019-03-24T23:14:45.875Z,3.53
2019-03-24T23:17:14.235Z,2.80
2019-03-24T23:19:42.641Z,3.20
2019-03-24T23:22:11.039Z,2.80
2019-03-24T23:24:39.450Z,2.60
2019-03-24T23:27:07.851Z,2.33
2019-03-24T23:29:36.224Z,2.70
2019-03-24T23:32:04.618Z,2.60
2019-03-24T23:34:32.999Z,3.10
2019-03-24T23:37:02.318Z,3.17
2019-03-24T23:39:30.854Z,2.53
2019-03-24T23:42:00.132Z,2.67
2019-03-24T23:44:28.515Z,2.23
2019-03-24T23:46:56.887Z,2.90
2019-03-24T23:49:25.282Z,2.83
2019-03-24T23:51:53.654Z,2.60
2019-03-24T23:54:27.050Z,2.50
2019-03-24T23:56:52.081Z,2.57
2019-03-24T23:59:20.460Z,2.50
